Time,TemperatureF,DewpointF,PressureIn,WindDirection,WindDirectionDegrees,WindSpeedMPH,WindSpeedGustMPH,Humidity,HourlyPrecipIn,Conditions,Clouds,dailyrainin,SoftwareType,DateUTC
2013-01-26 00:14:00,47.0,45.9,30.05,WSW,246,0.0,0.0,96,0.00,CLR,SCT,0.00,WeatherDisplay:10.37,2013-01-26 08:14:00,
2013-01-26 00:29:00,47.0,45.9,30.05,WSW,246,0.0,0.0,96,0.00,CLR,SCT,0.00,WeatherDisplay:10.37,2013-01-26 08:29:00,
2013-01-26 00:44:00,47.0,45.9,30.05,WSW,246,0.0,0.0,96,0.00,CLR,SCT,0.00,WeatherDisplay:10.37,2013-01-26 08:44:00,
2013-01-26 00:59:00,47.0,45.9,30.05,WSW,246,0.0,0.0,96,0.00,CLR,SCT,0.00,WeatherDisplay:10.37,2013-01-26 08:59:00,
2013-01-26 01:14:00,47.0,45.9,30.05,WSW,246,0.0,0.0,96,0.00,CLR,SCT,0.00,WeatherDisplay:10.37,2013-01-26 09:14:00,
2013-01-26 01:29:00,47.0,45.9,30.05,WSW,246,0.0,0.0,96,0.00,CLR,SCT,0.00,WeatherDisplay:10.37,2013-01-26 09:29:00,
2013-01-26 01:44:00,47.0,45.9,30.05,WSW,246,0.0,0.0,96,0.00,CLR,SCT,0.00,WeatherDisplay:10.37,2013-01-26 09:44:00,
2013-01-26 01:59:00,47.0,45.9,30.05,WSW,246,0.0,0.0,96,0.00,CLR,SCT,0.00,WeatherDisplay:10.37,2013-01-26 09:59:00,
2013-01-26 02:14:00,47.0,45.9,30.05,WSW,246,0.0,0.0,96,0.00,CLR,SCT,0.00,WeatherDisplay:10.37,2013-01-26 10:14:00,
2013-01-26 02:29:00,47.0,45.9,30.05,WSW,246,0.0,0.0,96,0.00,CLR,SCT,0.00,WeatherDisplay:10.37,2013-01-26 10:29:00,
2013-01-26 02:44:00,47.0,45.9,30.05,WSW,246,0.0,0.0,96,0.00,CLR,SCT,0.00,WeatherDisplay:10.37,2013-01-26 10:44:00,
2013-01-26 02:59:00,47.0,45.9,30.05,WSW,246,0.0,0.0,96,0.00,CLR,SCT,0.00,WeatherDisplay:10.37,2013-01-26 10:59:00,
2013-01-26 03:14:00,47.0,45.9,30.05,WSW,246,0.0,0.0,96,0.00,CLR,SCT,0.00,WeatherDisplay:10.37,2013-01-26 11:14:00,
2013-01-26 03:29:00,47.0,45.9,30.05,WSW,246,0.0,0.0,96,0.00,CLR,SCT,0.00,WeatherDisplay:10.37,2013-01-26 11:29:00,
2013-01-26 03:44:00,47.0,45.9,30.05,WSW,246,0.0,0.0,96,0.00,CLR,SCT,0.00,WeatherDisplay:10.37,2013-01-26 11:44:00,
2013-01-26 03:59:00,47.0,45.9,30.05,WSW,246,0.0,0.0,96,0.00,CLR,SCT,0.00,WeatherDisplay:10.37,2013-01-26 11:59:00,
2013-01-26 04:14:00,47.0,45.9,30.05,WSW,246,0.0,0.0,96,0.00,CLR,SCT,0.00,WeatherDisplay:10.37,2013-01-26 12:14:00,
2013-01-26 04:29:00,47.0,45.9,30.05,WSW,246,0.0,0.0,96,0.00,CLR,SCT,0.00,WeatherDisplay:10.37,2013-01-26 12:29:00,
2013-01-26 04:44:00,47.0,45.9,30.05,WSW,246,0.0,0.0,96,0.00,CLR,SCT,0.00,WeatherDisplay:10.37,2013-01-26 12:44:00,
2013-01-26 04:59:00,47.0,45.9,30.05,WSW,246,0.0,0.0,96,0.00,CLR,SCT,0.00,WeatherDisplay:10.37,2013-01-26 12:59:00,
2013-01-26 05:14:00,47.0,45.9,30.05,WSW,246,0.0,0.0,96,0.00,CLR,SCT,0.00,WeatherDisplay:10.37,2013-01-26 13:14:00,
2013-01-26 05:29:00,47.0,45.9,30.05,WSW,246,0.0,0.0,96,0.00,CLR,SCT,0.00,WeatherDisplay:10.37,2013-01-26 13:29:00,
2013-01-26 05:44:00,47.0,45.9,30.05,WSW,246,0.0,0.0,96,0.00,CLR,SCT,0.00,WeatherDisplay:10.37,2013-01-26 13:44:00,
2013-01-26 05:59:00,47.0,45.9,30.05,WSW,246,0.0,0.0,96,0.00,CLR,SCT,0.00,WeatherDisplay:10.37,2013-01-26 13:59:00,
2013-01-26 06:14:00,47.0,45.9,30.05,WSW,246,0.0,0.0,96,0.00,CLR,SCT,0.00,WeatherDisplay:10.37,2013-01-26 14:14:00,
2013-01-26 06:29:00,47.0,45.9,30.05,WSW,246,0.0,0.0,96,0.00,CLR,SCT,0.00,WeatherDisplay:10.37,2013-01-26 14:29:00,
2013-01-26 06:44:00,47.0,45.9,30.05,WSW,246,0.0,0.0,96,0.00,CLR,SCT,0.00,WeatherDisplay:10.37,2013-01-26 14:44:00,
2013-01-26 06:59:00,47.0,45.9,30.05,WSW,246,0.0,0.0,96,0.00,CLR,SCT,0.00,WeatherDisplay:10.37,2013-01-26 14:59:00,
2013-01-26 07:14:00,47.0,45.9,30.05,WSW,246,0.0,0.0,96,0.00,CLR,SCT,0.00,WeatherDisplay:10.37,2013-01-26 15:14:00,
2013-01-26 07:29:00,47.0,45.9,30.05,WSW,246,0.0,0.0,96,0.00,CLR,SCT,0.00,WeatherDisplay:10.37,2013-01-26 15:29:00,
2013-01-26 07:44:00,47.0,45.9,30.05,WSW,246,0.0,0.0,96,0.00,CLR,SCT,0.00,WeatherDisplay:10.37,2013-01-26 15:44:00,
2013-01-26 11:29:00,45.3,44.2,30.04,SSE,158,0.0,6.0,96,0.01,RA,SCT,0.28,WeatherDisplay:10.37,2013-01-26 19:29:00,
2013-01-26 11:45:00,44.0,41.2,30.05,NNW,329,2.0,12.0,90,0.01,RA,SCT,0.29,WeatherDisplay:10.37,2013-01-26 19:45:00,
2013-01-26 11:59:00,42.7,41.4,30.05,SE,127,0.0,2.0,95,0.00,CLR,SCT,0.29,WeatherDisplay:10.37,2013-01-26 19:59:00,
2013-01-26 12:14:00,43.1,41.7,30.05,ESE,118,0.0,4.0,95,0.01,RA,SCT,0.30,WeatherDisplay:10.37,2013-01-26 20:14:00,
2013-01-26 12:29:00,43.3,42.0,30.04,ESE,105,0.0,2.0,95,0.01,CLR,SCT,0.31,WeatherDisplay:10.37,2013-01-26 20:29:00,
2013-01-26 12:44:00,45.2,44.2,30.04,SSE,149,0.0,2.0,96,0.00,CLR,SCT,0.31,WeatherDisplay:10.37,2013-01-26 20:44:00,
2013-01-26 12:59:00,45.8,43.6,30.04,South,169,0.0,3.0,92,0.00,CLR,SCT,0.31,WeatherDisplay:10.37,2013-01-26 20:59:00,
2013-01-26 13:14:00,46.8,44.0,30.03,West,265,0.0,6.0,90,0.00,CLR,SCT,0.31,WeatherDisplay:10.37,2013-01-26 21:14:00,
2013-01-26 13:29:00,47.5,44.7,30.02,West,269,0.0,6.0,90,0.00,CLR,SCT,0.31,WeatherDisplay:10.37,2013-01-26 21:29:00,
2013-01-26 13:44:00,47.9,44.5,30.02,NNE,20,1.0,7.0,88,0.00,CLR,SCT,0.31,WeatherDisplay:10.37,2013-01-26 21:44:00,
2013-01-26 13:59:00,47.7,43.1,30.02,West,261,1.0,10.0,84,0.00,CLR,SCT,0.31,WeatherDisplay:10.37,2013-01-26 21:59:00,
2013-01-26 14:14:00,46.8,41.9,30.03,West,279,7.0,17.0,83,0.00,CLR,SCT,0.31,WeatherDisplay:10.37,2013-01-26 22:14:00,
2013-01-26 14:29:00,43.7,40.6,30.03,NW,311,2.0,12.0,89,0.03,RA,SCT,0.34,WeatherDisplay:10.37,2013-01-26 22:29:00,
2013-01-26 14:44:00,43.6,41.7,30.04,WNW,294,0.0,2.0,93,0.00,CLR,SCT,0.34,WeatherDisplay:10.37,2013-01-26 22:44:00,
2013-01-26 14:59:00,43.4,41.8,30.04,SE,126,0.0,3.0,94,0.00,CLR,SCT,0.34,WeatherDisplay:10.37,2013-01-26 22:59:00,
2013-01-26 15:14:00,43.0,41.4,30.05,NW,307,2.0,10.0,94,0.02,RA,SCT,0.36,WeatherDisplay:10.37,2013-01-26 23:14:00,
2013-01-26 15:29:00,42.7,41.1,30.05,South,177,0.0,12.0,94,0.02,RA,SCT,0.38,WeatherDisplay:10.37,2013-01-26 23:29:00,
2013-01-26 15:44:00,42.7,41.4,30.05,SSE,152,0.0,1.0,95,0.00,CLR,SCT,0.38,WeatherDisplay:10.37,2013-01-26 23:44:00,
2013-01-26 15:59:00,42.4,41.1,30.05,SSE,152,0.0,1.0,95,0.00,CLR,SCT,0.38,WeatherDisplay:10.37,2013-01-26 23:59:00,
2013-01-26 16:14:00,42.5,41.4,30.05,SE,143,0.0,2.0,96,0.02,,SCT,0.40,WeatherDisplay:10.37,2013-01-27 00:14:00,
2013-01-26 16:29:00,42.3,41.3,30.05,ESE,114,0.0,2.0,96,0.00,CLR,SCT,0.40,WeatherDisplay:10.37,2013-01-27 00:29:00,
2013-01-26 16:44:00,42.1,40.8,30.05,ESE,114,0.0,0.0,95,0.00,CLR,SCT,0.40,WeatherDisplay:10.37,2013-01-27 00:44:00,
2013-01-26 16:59:00,42.1,40.7,30.06,ESE,114,0.0,1.0,95,0.00,CLR,SCT,0.40,WeatherDisplay:10.37,2013-01-27 00:59:00,
2013-01-26 17:14:00,41.5,40.2,30.06,ESE,114,0.0,1.0,95,0.00,CLR,SCT,0.40,WeatherDisplay:10.37,2013-01-27 01:14:00,
2013-01-26 17:29:00,41.0,39.7,30.06,ESE,114,0.0,0.0,95,0.01,,SCT,0.41,WeatherDisplay:10.37,2013-01-27 01:29:00,
2013-01-26 17:44:00,41.0,39.9,30.07,ESE,114,0.0,0.0,96,0.00,CLR,SCT,0.41,WeatherDisplay:10.37,2013-01-27 01:44:00,
2013-01-26 17:59:00,41.4,40.6,30.08,ESE,114,0.0,0.0,97,0.02,RA,SCT,0.43,WeatherDisplay:10.37,2013-01-27 01:59:00,
2013-01-26 18:14:00,41.7,41.0,30.08,SE,132,0.0,4.0,97,0.02,,SCT,0.45,WeatherDisplay:10.37,2013-01-27 02:14:00,
2013-01-26 18:29:00,41.9,41.1,30.08,SE,132,0.0,1.0,97,0.00,CLR,SCT,0.45,WeatherDisplay:10.37,2013-01-27 02:29:00,
2013-01-26 18:44:00,41.7,40.6,30.09,SE,132,0.0,2.0,96,0.00,CLR,SCT,0.45,WeatherDisplay:10.37,2013-01-27 02:44:00,
2013-01-26 18:59:00,41.5,40.4,30.09,SE,132,0.0,3.0,96,0.00,CLR,SCT,0.45,WeatherDisplay:10.37,2013-01-27 02:59:00,
2013-01-26 19:14:00,41.6,40.9,30.09,SE,134,0.0,3.0,97,0.00,CLR,SCT,0.45,WeatherDisplay:10.37,2013-01-27 03:14:00,
2013-01-26 19:29:00,41.7,40.9,30.10,SE,129,0.0,2.0,97,0.00,CLR,SCT,0.45,WeatherDisplay:10.37,2013-01-27 03:29:00,
2013-01-26 19:44:00,40.6,39.5,30.10,NNE,30,0.0,2.0,96,0.00,CLR,SCT,0.45,WeatherDisplay:10.37,2013-01-27 03:44:00,
2013-01-26 19:59:00,40.6,39.8,30.10,NE,50,0.0,2.0,97,0.00,CLR,SCT,0.45,WeatherDisplay:10.37,2013-01-27 03:59:00,
2013-01-26 20:14:00,40.2,39.2,30.11,ENE,64,0.0,1.0,96,0.01,RA,SCT,0.46,WeatherDisplay:10.37,2013-01-27 04:14:00,
2013-01-26 20:29:00,40.4,39.6,30.11,ENE,64,0.0,2.0,97,0.01,,SCT,0.47,WeatherDisplay:10.37,2013-01-27 04:29:00,
2013-01-26 20:44:00,40.2,39.4,30.11,SSE,154,0.0,2.0,97,0.00,CLR,SCT,0.47,WeatherDisplay:10.37,2013-01-27 04:44:00,
2013-01-26 20:59:00,39.7,38.9,30.11,SSE,154,0.0,0.0,97,0.00,CLR,SCT,0.47,WeatherDisplay:10.37,2013-01-27 04:59:00,
2013-01-26 21:14:00,39.5,38.7,30.12,SSE,154,0.0,0.0,97,0.00,CLR,SCT,0.47,WeatherDisplay:10.37,2013-01-27 05:14:00,
2013-01-26 21:29:00,39.3,38.5,30.12,SSE,154,0.0,0.0,97,0.00,CLR,SCT,0.47,WeatherDisplay:10.37,2013-01-27 05:29:00,
2013-01-26 21:44:00,39.3,38.5,30.13,SSE,154,0.0,1.0,97,0.01,RA,SCT,0.48,WeatherDisplay:10.37,2013-01-27 05:44:00,
2013-01-26 21:59:00,39.2,38.4,30.14,SE,132,0.0,1.0,97,0.00,CLR,SCT,0.48,WeatherDisplay:10.37,2013-01-27 05:59:00,
2013-01-26 22:14:00,39.6,38.8,30.14,NNE,21,0.0,1.0,97,0.01,RA,SCT,0.49,WeatherDisplay:10.37,2013-01-27 06:14:00,
2013-01-26 22:29:00,39.9,39.2,30.14,ESE,112,0.0,3.0,97,0.00,CLR,SCT,0.49,WeatherDisplay:10.37,2013-01-27 06:29:00,
2013-01-26 22:44:00,39.8,39.0,30.15,ESE,112,0.0,1.0,97,0.00,CLR,SCT,0.49,WeatherDisplay:10.37,2013-01-27 06:44:00,
2013-01-26 22:59:00,39.2,38.4,30.15,ESE,112,0.0,0.0,97,0.00,CLR,SCT,0.49,WeatherDisplay:10.37,2013-01-27 06:59:00,
2013-01-26 23:14:00,38.9,38.1,30.15,ESE,112,0.0,0.0,97,0.00,CLR,SCT,0.49,WeatherDisplay:10.37,2013-01-27 07:14:00,
2013-01-26 23:30:00,38.7,37.9,30.15,ESE,112,0.0,0.0,97,0.01,RA,SCT,0.50,WeatherDisplay:10.37,2013-01-27 07:30:00,
2013-01-26 23:44:00,38.6,37.8,30.16,ESE,112,0.0,0.0,97,0.01,RA,SCT,0.51,WeatherDisplay:10.37,2013-01-27 07:44:00,
2013-01-26 23:59:00,38.6,37.8,30.16,NNW,333,0.0,1.0,97,0.02,RA,SCT,0.00,WeatherDisplay:10.37,2013-01-27 07:59:00,